createdAt,value
2022-12-11T00:01:19.284Z,33.45
2022-12-11T00:03:46.874Z,28.60
2022-12-11T00:06:16.877Z,31.95
2022-12-11T00:08:43.504Z,27.00
2022-12-11T00:11:13.379Z,31.30
2022-12-11T00:13:39.915Z,29.67
2022-12-11T00:16:06.578Z,32.40
2022-12-11T00:18:33.013Z,28.42
2022-12-11T00:21:05.022Z,29.30
2022-12-11T00:23:31.658Z,29.83
2022-12-11T00:25:58.323Z,27.55
2022-12-11T00:28:24.733Z,30.85
2022-12-11T00:30:51.198Z,28.90
2022-12-11T00:33:17.835Z,26.55
2022-12-11T00:35:46.776Z,28.58
2022-12-11T00:38:18.916Z,30.75
2022-12-11T00:40:45.952Z,28.23
2022-12-11T00:43:12.895Z,31.80
2022-12-11T00:45:42.271Z,25.25
2022-12-11T00:48:09.546Z,25.65
2022-12-11T00:50:36.689Z,25.98
2022-12-11T00:53:04.970Z,27.92
2022-12-11T00:55:31.806Z,24.52
2022-12-11T00:58:01.058Z,28.83
2022-12-11T01:00:27.464Z,26.13
2022-12-11T01:02:54.028Z,25.85
2022-12-11T01:05:21.249Z,31.60
2022-12-11T01:07:48.008Z,33.05
2022-12-11T01:10:24.533Z,25.45
2022-12-11T01:13:00.486Z,26.25
2022-12-11T01:15:37.464Z,24.48
2022-12-11T01:18:06.512Z,27.60
2022-12-11T01:20:36.496Z,27.80
2022-12-11T01:23:03.147Z,26.45
2022-12-11T01:25:29.647Z,27.75
2022-12-11T01:27:56.242Z,30.00
2022-12-11T01:30:24.912Z,30.77
2022-12-11T01:32:52.272Z,27.88
2022-12-11T01:35:19.720Z,31.42
2022-12-11T01:37:47.418Z,31.00
2022-12-11T01:40:15.935Z,27.08
2022-12-11T01:42:42.661Z,29.42
2022-12-11T01:45:38.928Z,29.17
2022-12-11T01:48:09.320Z,28.60
2022-12-11T01:50:58.193Z,24.38
2022-12-11T01:53:33.290Z,26.08
2022-12-11T01:56:00.272Z,35.22
2022-12-11T01:58:33.865Z,28.67
2022-12-11T02:01:02.517Z,29.50
2022-12-11T02:03:29.003Z,28.42
2022-12-11T02:06:01.440Z,26.98
2022-12-11T02:08:28.480Z,31.95
2022-12-11T02:11:06.013Z,29.65
2022-12-11T02:13:56.412Z,32.65
2022-12-11T02:16:34.827Z,28.58
2022-12-11T02:19:40.103Z,27.30
2022-12-11T02:22:10.603Z,29.30
2022-12-11T02:24:47.989Z,27.45
2022-12-11T02:27:21.445Z,27.90
2022-12-11T02:30:02.473Z,29.48
2022-12-11T02:32:51.873Z,31.35
2022-12-11T02:35:34.646Z,29.67
2022-12-11T02:38:05.632Z,27.98
2022-12-11T02:40:36.806Z,30.60
2022-12-11T02:43:07.168Z,28.27
2022-12-11T02:45:35.409Z,28.52
2022-12-11T02:48:03.957Z,28.77
2022-12-11T02:50:31.008Z,34.40
2022-12-11T02:53:00.661Z,32.80
2022-12-11T02:55:29.678Z,32.45
2022-12-11T02:58:17.963Z,32.67
2022-12-11T03:00:46.350Z,30.48
2022-12-11T03:03:13.834Z,30.70
2022-12-11T03:05:41.885Z,34.65
2022-12-11T03:08:08.726Z,28.75
2022-12-11T03:10:35.239Z,28.92
2022-12-11T03:13:02.829Z,34.45
2022-12-11T03:15:37.388Z,33.25
2022-12-11T03:18:29.894Z,29.95
2022-12-11T03:21:09.314Z,33.63
2022-12-11T03:23:49.628Z,28.65
2022-12-11T03:26:19.462Z,32.47
2022-12-11T03:28:48.135Z,30.60
2022-12-11T03:31:27.741Z,32.17
2022-12-11T03:34:01.180Z,33.17
2022-12-11T03:36:34.651Z,33.17
2022-12-11T03:39:13.311Z,30.65
2022-12-11T03:41:41.093Z,30.58
2022-12-11T03:44:09.060Z,28.77
2022-12-11T03:46:39.518Z,30.80
2022-12-11T03:49:10.656Z,38.13
2022-12-11T03:51:38.912Z,30.45
2022-12-11T03:54:06.580Z,34.33
2022-12-11T03:56:36.796Z,33.85
2022-12-11T04:01:29.879Z,34.15
2022-12-11T04:03:56.585Z,31.92
2022-12-11T04:06:23.178Z,34.22
2022-12-11T04:08:49.626Z,35.30
2022-12-11T04:11:34.349Z,39.45
2022-12-11T04:14:28.157Z,38.63
2022-12-11T04:16:55.536Z,41.67
2022-12-11T04:19:41.382Z,37.45
2022-12-11T04:22:27.921Z,36.67
2022-12-11T04:24:54.418Z,43.00
2022-12-11T04:27:39.412Z,38.78
2022-12-11T04:30:11.305Z,39.00
2022-12-11T04:32:37.742Z,40.42
2022-12-11T04:35:06.180Z,38.47
2022-12-11T04:37:33.031Z,39.20
2022-12-11T04:39:59.423Z,39.25
2022-12-11T04:42:25.824Z,37.63
2022-12-11T04:44:52.247Z,44.15
2022-12-11T04:47:18.786Z,37.45
2022-12-11T04:49:45.203Z,38.42
2022-12-11T04:52:11.834Z,33.95
2022-12-11T04:54:38.470Z,37.17
2022-12-11T04:57:04.850Z,38.63
2022-12-11T04:59:32.924Z,38.60
2022-12-11T05:01:59.676Z,32.42
2022-12-11T05:04:26.386Z,35.85
2022-12-11T05:06:52.877Z,36.83
2022-12-11T05:09:19.446Z,32.40
2022-12-11T05:11:45.875Z,41.13
2022-12-11T05:14:12.427Z,36.35
2022-12-11T05:16:38.951Z,35.65
2022-12-11T05:19:05.432Z,38.30
2022-12-11T05:21:35.237Z,37.53
2022-12-11T05:24:05.111Z,35.15
2022-12-11T05:26:31.525Z,37.67
2022-12-11T05:28:57.947Z,38.78
2022-12-11T05:31:26.866Z,37.45
2022-12-11T05:33:54.431Z,36.70
2022-12-11T05:36:23.893Z,37.30
2022-12-11T05:38:51.630Z,36.38
2022-12-11T05:41:21.570Z,39.83
2022-12-11T05:43:48.633Z,37.85
2022-12-11T05:46:21.154Z,40.72
2022-12-11T05:48:50.063Z,42.28
2022-12-11T05:51:17.801Z,42.40
2022-12-11T05:53:46.364Z,47.15
2022-12-11T05:56:33.918Z,38.47
2022-12-11T05:59:01.894Z,41.35
2022-12-11T06:01:35.807Z,45.15
2022-12-11T06:04:04.146Z,39.17
2022-12-11T06:06:30.671Z,45.50
2022-12-11T06:08:59.229Z,46.55
2022-12-11T06:11:28.281Z,42.67
2022-12-11T06:13:55.660Z,41.58
2022-12-11T06:16:22.678Z,43.13
2022-12-11T06:18:49.355Z,39.40
2022-12-11T06:21:21.639Z,40.58
2022-12-11T06:23:50.215Z,41.80
2022-12-11T06:26:18.071Z,42.85
2022-12-11T06:28:44.927Z,45.50
2022-12-11T06:31:11.510Z,40.05
2022-12-11T06:33:38.318Z,45.13
2022-12-11T06:36:13.974Z,47.40
2022-12-11T06:38:40.718Z,42.42
2022-12-11T06:41:08.707Z,45.60
2022-12-11T06:43:37.399Z,41.97
2022-12-11T06:46:08.994Z,51.03
2022-12-11T06:48:35.509Z,43.50
2022-12-11T06:51:22.613Z,43.83
2022-12-11T06:53:54.036Z,45.25
2022-12-11T06:56:21.578Z,47.67
2022-12-11T06:58:48.348Z,49.05
2022-12-11T07:01:20.871Z,44.50
2022-12-11T07:03:47.828Z,45.13
2022-12-11T07:06:14.933Z,48.42
2022-12-11T07:08:42.103Z,45.47
2022-12-11T07:11:11.517Z,51.33
2022-12-11T07:13:38.499Z,55.65
2022-12-11T07:16:10.529Z,50.90
2022-12-11T07:18:43.186Z,48.13
2022-12-11T07:21:12.162Z,55.72
2022-12-11T07:23:38.654Z,52.97
2022-12-11T07:26:06.521Z,51.42
2022-12-11T07:28:33.945Z,51.78
2022-12-11T07:31:04.976Z,50.42
2022-12-11T07:33:31.366Z,54.50
2022-12-11T07:36:02.114Z,51.47
2022-12-11T07:38:28.632Z,55.10
2022-12-11T07:40:55.084Z,48.53
2022-12-11T07:43:21.543Z,53.50
2022-12-11T07:45:48.074Z,58.40
2022-12-11T07:48:14.504Z,52.08
2022-12-11T07:50:41.028Z,54.95
2022-12-11T07:53:07.739Z,50.80
2022-12-11T07:55:34.201Z,56.30
2022-12-11T07:58:00.607Z,59.88
2022-12-11T08:00:27.064Z,58.05
2022-12-11T08:02:53.480Z,60.28
2022-12-11T08:05:19.966Z,57.05
2022-12-11T08:07:47.044Z,58.95
2022-12-11T08:10:13.532Z,57.08
2022-12-11T08:12:39.972Z,59.03
2022-12-11T08:15:07.262Z,60.40
2022-12-11T08:17:39.833Z,63.25
2022-12-11T08:20:07.301Z,55.33
2022-12-11T08:22:34.203Z,58.13
2022-12-11T08:25:00.633Z,56.78
2022-12-11T08:27:27.034Z,54.53
2022-12-11T08:29:53.499Z,59.45
2022-12-11T08:32:19.932Z,62.15
2022-12-11T08:34:46.476Z,64.85
2022-12-11T08:37:13.598Z,63.55
2022-12-11T08:39:40.031Z,67.15
2022-12-11T08:42:07.187Z,61.22
2022-12-11T08:44:33.864Z,66.60
2022-12-11T08:47:00.326Z,67.97
2022-12-11T08:49:32.696Z,72.45
2022-12-11T08:52:00.755Z,63.63
2022-12-11T08:54:27.179Z,65.75
2022-12-11T08:56:57.704Z,72.18
2022-12-11T08:59:25.658Z,64.93
2022-12-11T09:01:52.289Z,73.55
2022-12-11T09:04:18.728Z,63.67
2022-12-11T09:06:45.104Z,64.47
2022-12-11T09:09:12.587Z,58.78
2022-12-11T09:11:39.182Z,58.03
2022-12-11T09:14:07.932Z,65.18
2022-12-11T09:16:37.725Z,62.72
2022-12-11T09:19:04.450Z,60.55
2022-12-11T09:21:30.973Z,61.08
2022-12-11T09:23:59.362Z,55.10
2022-12-11T09:26:26.961Z,60.65
2022-12-11T09:28:54.255Z,54.05
2022-12-11T09:31:26.899Z,57.60
2022-12-11T09:34:00.811Z,63.70
2022-12-11T09:36:28.041Z,72.47
2022-12-11T09:39:01.149Z,61.47
2022-12-11T09:41:51.842Z,59.00
2022-12-11T09:44:48.476Z,64.18
2022-12-11T09:47:21.075Z,60.55
2022-12-11T09:49:51.332Z,60.75
2022-12-11T09:52:29.491Z,52.25
2022-12-11T09:55:01.810Z,50.17
2022-12-11T09:57:39.359Z,62.05
2022-12-11T10:00:14.624Z,52.30
2022-12-11T10:02:50.157Z,61.35
2022-12-11T10:05:29.791Z,58.58
2022-12-11T10:08:22.565Z,51.55
2022-12-11T10:11:00.733Z,48.30
2022-12-11T10:14:08.649Z,44.05
2022-12-11T10:16:47.164Z,41.35
2022-12-11T10:19:34.739Z,42.85
2022-12-11T10:22:02.239Z,39.85
2022-12-11T10:25:12.606Z,37.10
2022-12-11T10:27:39.252Z,34.22
2022-12-11T10:30:15.594Z,38.95
2022-12-11T10:32:59.813Z,36.20
2022-12-11T10:35:35.710Z,36.63
2022-12-11T10:38:21.132Z,32.97
2022-12-11T10:40:52.941Z,30.50
2022-12-11T10:43:19.386Z,32.83
2022-12-11T10:45:55.283Z,34.00
2022-12-11T10:48:22.229Z,29.13
2022-12-11T10:51:02.613Z,31.80
2022-12-11T10:53:31.283Z,28.38
2022-12-11T10:56:00.936Z,27.75
2022-12-11T10:58:34.263Z,30.27
2022-12-11T11:01:09.059Z,31.17
2022-12-11T11:03:41.015Z,27.55
2022-12-11T11:06:19.207Z,27.15
2022-12-11T11:08:54.879Z,25.42
2022-12-11T11:11:26.847Z,28.63
2022-12-11T11:14:07.421Z,26.55
2022-12-11T11:16:37.993Z,26.95
2022-12-11T11:19:06.354Z,26.52
2022-12-11T11:21:34.806Z,27.55
2022-12-11T11:24:01.362Z,33.75
2022-12-11T11:27:04.428Z,26.92
2022-12-11T11:29:29.098Z,24.17
2022-12-11T11:31:55.583Z,26.92
2022-12-11T11:34:22.343Z,26.95
2022-12-11T11:36:58.128Z,25.83
2022-12-11T11:39:45.149Z,33.33
2022-12-11T11:42:50.396Z,29.05
2022-12-11T11:45:44.379Z,27.42
2022-12-11T11:48:34.244Z,26.83
2022-12-11T11:51:21.027Z,31.83
2022-12-11T11:53:50.918Z,40.67
2022-12-11T11:56:21.181Z,35.50
2022-12-11T12:01:22.641Z,24.90
2022-12-11T12:03:50.357Z,27.38
2022-12-11T12:06:52.077Z,29.70
2022-12-11T12:09:27.745Z,30.17
2022-12-11T12:12:20.917Z,30.13
2022-12-11T12:14:54.578Z,30.13
2022-12-11T12:17:37.953Z,22.98
2022-12-11T12:20:13.448Z,28.08
2022-12-11T12:22:52.250Z,25.80
2022-12-11T12:26:12.701Z,25.80
2022-12-11T12:32:01.481Z,29.25
2022-12-11T12:34:43.725Z,29.05
2022-12-11T12:37:34.815Z,32.28
2022-12-11T12:40:26.198Z,32.83
2022-12-11T12:42:55.316Z,28.77
2022-12-11T12:45:49.585Z,27.77
2022-12-11T12:48:16.574Z,25.95
2022-12-11T12:50:49.382Z,29.60
2022-12-11T12:53:23.721Z,27.70
2022-12-11T12:55:51.807Z,29.15
2022-12-11T12:58:28.453Z,28.50
2022-12-11T13:01:06.490Z,27.98
2022-12-11T13:03:37.970Z,26.42
2022-12-11T13:06:13.529Z,25.13
2022-12-11T13:08:49.657Z,30.10
2022-12-11T13:11:18.593Z,27.83
2022-12-11T13:14:05.257Z,25.70
2022-12-11T13:16:38.342Z,28.02
2022-12-11T13:19:22.623Z,27.52
2022-12-11T13:22:03.833Z,30.08
2022-12-11T13:24:34.156Z,27.85
2022-12-11T13:27:22.074Z,31.55
2022-12-11T13:29:48.688Z,34.45
2022-12-11T13:32:18.070Z,30.55
2022-12-11T13:34:53.614Z,32.40
2022-12-11T13:37:47.252Z,29.67
2022-12-11T13:40:27.454Z,30.45
2022-12-11T13:43:01.209Z,32.75
2022-12-11T13:45:37.283Z,27.75
2022-12-11T13:48:05.825Z,29.30
2022-12-11T13:50:34.556Z,29.45
2022-12-11T13:53:02.877Z,29.55
2022-12-11T13:55:34.579Z,32.05
2022-12-11T13:58:01.456Z,29.75
2022-12-11T14:00:32.112Z,31.45
2022-12-11T14:03:04.496Z,27.20
2022-12-11T14:05:31.217Z,29.77
2022-12-11T14:08:02.347Z,40.92
2022-12-11T14:10:32.392Z,34.63
2022-12-11T14:13:31.162Z,32.30
2022-12-11T14:15:57.740Z,33.25
2022-12-11T14:18:29.096Z,33.88
2022-12-11T14:20:57.976Z,29.80
2022-12-11T14:23:36.032Z,31.95
2022-12-11T14:26:24.538Z,34.03
2022-12-11T14:28:52.109Z,30.33
2022-12-11T14:31:30.967Z,34.72
2022-12-11T14:34:33.615Z,37.50
2022-12-11T14:37:02.663Z,33.33
2022-12-11T14:39:41.189Z,30.90
2022-12-11T14:42:12.780Z,33.58
2022-12-11T14:45:23.820Z,50.95
2022-12-11T14:47:52.775Z,52.33
2022-12-11T14:50:19.108Z,44.67
2022-12-11T14:52:53.427Z,46.58
2022-12-11T14:55:30.850Z,43.75
2022-12-11T14:58:02.683Z,36.22
2022-12-11T15:00:37.502Z,299.27
2022-12-11T15:03:27.498Z,195.45
2022-12-11T15:05:56.690Z,125.45
2022-12-11T15:08:30.171Z,104.77
2022-12-11T15:11:13.413Z,99.00
2022-12-11T15:13:55.599Z,111.15
2022-12-11T15:16:24.682Z,70.50
2022-12-11T15:18:53.642Z,86.57
2022-12-11T15:21:29.511Z,70.25
2022-12-11T15:23:58.391Z,58.08
2022-12-11T15:26:47.844Z,66.15
2022-12-11T15:29:35.518Z,49.38
2022-12-11T15:32:03.540Z,57.40
2022-12-11T15:34:35.308Z,58.50
2022-12-11T15:37:02.108Z,52.85
2022-12-11T15:39:28.558Z,57.47
2022-12-11T15:41:55.017Z,55.55
2022-12-11T15:44:23.712Z,56.75
2022-12-11T15:46:50.639Z,64.90
2022-12-11T15:49:18.900Z,57.42
2022-12-11T15:51:45.898Z,58.53
2022-12-11T15:54:12.349Z,52.42
2022-12-11T15:56:39.965Z,54.85
2022-12-11T15:59:06.952Z,46.22
2022-12-11T16:01:33.796Z,46.95
2022-12-11T16:04:04.918Z,45.38
2022-12-11T16:06:31.970Z,50.25
2022-12-11T16:08:58.619Z,90.60
2022-12-11T16:11:25.047Z,78.35
2022-12-11T16:13:51.479Z,63.25
2022-12-11T16:16:17.895Z,71.38
2022-12-11T16:18:44.362Z,76.65
2022-12-11T16:21:10.764Z,62.30
2022-12-11T16:23:37.346Z,62.55
2022-12-11T16:26:09.580Z,61.80
2022-12-11T16:28:36.031Z,56.83
2022-12-11T16:31:02.793Z,61.63
2022-12-11T16:33:29.347Z,56.47
2022-12-11T16:35:55.790Z,58.50
2022-12-11T16:38:22.223Z,61.10
2022-12-11T16:40:48.719Z,58.00
2022-12-11T16:43:15.199Z,67.43
2022-12-11T16:45:43.202Z,66.80
2022-12-11T16:48:09.637Z,67.63
2022-12-11T16:50:39.797Z,65.05
2022-12-11T16:55:32.735Z,61.08
2022-12-11T16:57:59.142Z,71.35
2022-12-11T17:00:25.645Z,65.65
2022-12-11T17:02:52.072Z,67.28
2022-12-11T17:05:18.901Z,60.38
2022-12-11T17:07:45.365Z,64.50
2022-12-11T17:10:11.891Z,65.93
2022-12-11T17:12:38.954Z,62.88
2022-12-11T17:15:05.947Z,66.63
2022-12-11T17:17:32.364Z,64.95
2022-12-11T17:19:58.951Z,81.72
2022-12-11T17:22:25.354Z,76.45
2022-12-11T17:24:51.816Z,85.40
2022-12-11T17:27:18.236Z,108.55
2022-12-11T17:29:44.907Z,129.73
2022-12-11T17:32:11.689Z,107.50
2022-12-11T17:34:38.881Z,106.00
2022-12-11T17:37:06.176Z,99.25
2022-12-11T17:39:32.594Z,102.72
2022-12-11T17:41:59.028Z,115.30
2022-12-11T17:44:26.771Z,129.95
2022-12-11T17:46:53.649Z,105.20
2022-12-11T17:49:20.187Z,105.13
2022-12-11T17:51:46.719Z,101.05
2022-12-11T17:54:13.673Z,105.78
2022-12-11T17:56:40.821Z,101.05
2022-12-11T17:59:07.248Z,99.10
2022-12-11T18:01:34.052Z,101.55
2022-12-11T18:04:01.835Z,105.72
2022-12-11T18:06:29.455Z,96.80
2022-12-11T18:08:56.873Z,109.10
2022-12-11T18:11:23.865Z,96.45
2022-12-11T18:13:51.823Z,101.78
2022-12-11T18:16:19.738Z,86.43
2022-12-11T18:18:47.654Z,105.47
2022-12-11T18:21:17.127Z,123.15
2022-12-11T18:23:44.097Z,95.60
2022-12-11T18:26:11.543Z,94.18
2022-12-11T18:28:37.946Z,92.70
2022-12-11T18:31:04.751Z,98.97
2022-12-11T18:33:32.137Z,104.60
2022-12-11T18:35:58.752Z,85.97
2022-12-11T18:38:25.278Z,92.40
2022-12-11T18:40:51.661Z,97.68
2022-12-11T18:43:18.095Z,80.85
2022-12-11T18:45:47.806Z,171.60
2022-12-11T18:48:15.131Z,105.50
2022-12-11T18:50:49.234Z,79.72
2022-12-11T18:53:17.010Z,84.20
2022-12-11T18:55:45.506Z,94.25
2022-12-11T18:58:14.304Z,80.47
2022-12-11T19:00:42.172Z,75.85
2022-12-11T19:03:09.860Z,76.32
2022-12-11T19:05:36.518Z,80.82
2022-12-11T19:08:03.743Z,100.20
2022-12-11T19:10:30.190Z,90.45
2022-12-11T19:12:56.988Z,90.25
2022-12-11T19:15:25.533Z,92.95
2022-12-11T19:17:52.068Z,81.88
2022-12-11T19:20:47.497Z,88.93
2022-12-11T19:23:05.805Z,84.43
2022-12-11T19:25:32.652Z,96.70
2022-12-11T19:27:59.140Z,88.55
2022-12-11T19:30:25.638Z,81.47
2022-12-11T19:32:52.042Z,85.05
2022-12-11T19:35:18.639Z,98.00
2022-12-11T19:37:45.086Z,90.35
2022-12-11T19:40:11.935Z,85.20
2022-12-11T19:42:38.572Z,87.22
2022-12-11T19:45:05.377Z,97.85
2022-12-11T19:47:31.989Z,99.07
2022-12-11T19:49:58.402Z,115.13
2022-12-11T19:52:24.832Z,100.25
2022-12-11T19:54:51.279Z,103.57
2022-12-11T19:57:17.754Z,87.30
2022-12-11T19:59:44.179Z,86.57
2022-12-11T20:02:12.179Z,86.28
2022-12-11T20:04:38.633Z,82.63
2022-12-11T20:07:05.129Z,85.05
2022-12-11T20:09:33.544Z,82.93
2022-12-11T20:11:59.931Z,85.30
2022-12-11T20:14:27.184Z,83.05
2022-12-11T20:17:11.860Z,80.65
2022-12-11T20:19:39.461Z,86.97
2022-12-11T20:22:06.092Z,79.13
2022-12-11T20:24:32.992Z,78.50
2022-12-11T20:27:00.155Z,79.30
2022-12-11T20:29:26.651Z,79.85
2022-12-11T20:31:53.110Z,83.38
2022-12-11T20:34:20.111Z,78.07
2022-12-11T20:36:49.385Z,81.13
2022-12-11T20:39:15.739Z,76.17
2022-12-11T20:41:42.306Z,77.72
2022-12-11T20:44:08.739Z,72.75
2022-12-11T20:46:35.245Z,75.57
2022-12-11T20:49:01.748Z,71.72
2022-12-11T20:51:28.970Z,76.40
2022-12-11T20:53:59.450Z,79.35
2022-12-11T20:56:28.840Z,74.88
2022-12-11T20:58:55.883Z,72.05
2022-12-11T21:01:24.544Z,81.95
2022-12-11T21:03:52.945Z,75.53
2022-12-11T21:06:31.014Z,81.63
2022-12-11T21:08:59.216Z,86.53
2022-12-11T21:11:25.893Z,74.05
2022-12-11T21:13:53.829Z,68.22
2022-12-11T21:16:20.755Z,71.63
2022-12-11T21:18:48.251Z,79.68
2022-12-11T21:21:15.138Z,69.47
2022-12-11T21:23:41.823Z,75.47
2022-12-11T21:26:08.591Z,70.95
2022-12-11T21:28:35.850Z,64.13
2022-12-11T21:31:10.766Z,69.88
2022-12-11T21:33:37.563Z,80.32
2022-12-11T21:36:06.866Z,72.55
2022-12-11T21:38:33.534Z,92.30
2022-12-11T21:41:10.751Z,85.93
2022-12-11T21:43:42.808Z,78.70
2022-12-11T21:46:26.777Z,89.65
2022-12-11T21:48:54.024Z,71.25
2022-12-11T21:51:29.745Z,79.63
2022-12-11T21:56:28.683Z,73.65
2022-12-11T21:58:55.405Z,76.13
2022-12-11T22:01:26.408Z,73.80
2022-12-11T22:03:53.525Z,69.78
2022-12-11T22:06:20.571Z,73.03
2022-12-11T22:08:49.083Z,71.30
2022-12-11T22:11:19.094Z,76.10
2022-12-11T22:13:47.830Z,73.65
2022-12-11T22:16:14.311Z,75.75
2022-12-11T22:18:40.844Z,68.35
2022-12-11T22:21:07.737Z,73.85
2022-12-11T22:23:34.201Z,76.30
2022-12-11T22:26:00.950Z,84.15
2022-12-11T22:28:27.520Z,77.18
2022-12-11T22:30:54.001Z,72.28
2022-12-11T22:33:21.821Z,73.32
2022-12-11T22:36:03.507Z,72.53
2022-12-11T22:38:29.928Z,103.95
2022-12-11T22:40:56.369Z,96.30
2022-12-11T22:43:22.769Z,181.88
2022-12-11T22:45:49.416Z,106.20
2022-12-11T22:48:16.017Z,86.32
2022-12-11T22:50:43.447Z,72.03
2022-12-11T22:53:10.092Z,71.00
2022-12-11T22:55:39.868Z,71.10
2022-12-11T22:58:07.371Z,73.53
2022-12-11T23:00:33.918Z,69.65
2022-12-11T23:03:00.869Z,69.30
2022-12-11T23:05:27.349Z,102.05
2022-12-11T23:07:53.924Z,84.50
2022-12-11T23:10:20.575Z,85.38
2022-12-11T23:12:47.022Z,78.43
2022-12-11T23:15:13.720Z,74.85
2022-12-11T23:17:40.314Z,72.70
2022-12-11T23:20:07.349Z,81.97
2022-12-11T23:22:33.885Z,71.05
2022-12-11T23:25:00.331Z,70.13
2022-12-11T23:27:26.792Z,66.72
2022-12-11T23:29:53.357Z,73.50
2022-12-11T23:32:19.743Z,74.60
2022-12-11T23:34:46.203Z,69.78
2022-12-11T23:37:12.671Z,67.68
2022-12-11T23:39:39.121Z,68.32
2022-12-11T23:42:05.737Z,73.43
2022-12-11T23:44:32.181Z,69.38
2022-12-11T23:46:58.603Z,70.30
2022-12-11T23:49:24.988Z,76.47
2022-12-11T23:51:51.380Z,76.03
2022-12-11T23:54:17.754Z,68.30
2022-12-11T23:56:44.195Z,73.95
2022-12-11T23:59:14.241Z,67.05
